createdAt,value
2023-03-17T00:00:44.867Z,82.53
2023-03-17T00:03:25.541Z,82.20
2023-03-17T00:05:56.699Z,82.02
2023-03-17T00:08:29.278Z,81.78
2023-03-17T00:10:58.490Z,81.71
2023-03-17T00:13:28.310Z,82.04
2023-03-17T00:16:01.750Z,82.31
2023-03-17T00:18:32.893Z,82.45
2023-03-17T00:21:01.791Z,82.50
2023-03-17T00:23:31.199Z,82.21
2023-03-17T00:26:00.111Z,82.42
2023-03-17T00:28:30.096Z,82.76
2023-03-17T00:31:01.191Z,82.88
2023-03-17T00:33:36.221Z,83.04
2023-03-17T00:36:10.807Z,83.36
2023-03-17T00:38:39.605Z,83.82
2023-03-17T00:41:10.428Z,84.02
2023-03-17T00:43:40.264Z,84.19
2023-03-17T00:46:14.764Z,84.34
2023-03-17T00:48:45.074Z,83.81
2023-03-17T00:51:15.148Z,83.25
2023-03-17T00:53:45.880Z,83.62
2023-03-17T00:56:17.416Z,84.12
2023-03-17T00:58:47.440Z,84.05
2023-03-17T01:01:20.381Z,83.74
2023-03-17T01:03:49.578Z,83.33
2023-03-17T01:06:18.552Z,83.46
2023-03-17T01:08:48.849Z,83.41
2023-03-17T01:11:20.279Z,83.34
2023-03-17T01:13:50.368Z,83.42
2023-03-17T01:16:20.163Z,83.48
2023-03-17T01:18:49.386Z,83.33
2023-03-17T01:21:18.286Z,83.29
2023-03-17T01:23:48.728Z,83.43
2023-03-17T01:26:18.613Z,83.68
2023-03-17T01:28:47.864Z,83.62
2023-03-17T01:31:17.657Z,83.47
2023-03-17T01:33:46.775Z,83.70
2023-03-17T01:36:15.537Z,83.73
2023-03-17T01:38:48.120Z,83.46
2023-03-17T01:41:18.555Z,83.41
2023-03-17T01:43:47.668Z,83.31
2023-03-17T01:46:21.887Z,83.73
2023-03-17T01:49:06.632Z,83.84
2023-03-17T01:51:40.365Z,83.68
2023-03-17T01:54:13.640Z,83.79
2023-03-17T01:56:46.807Z,83.97
2023-03-17T01:59:23.514Z,83.90
2023-03-17T02:01:58.070Z,83.90
2023-03-17T02:04:27.253Z,83.97
2023-03-17T02:06:59.451Z,83.95
2023-03-17T02:09:29.320Z,84.07
2023-03-17T02:12:01.146Z,84.20
2023-03-17T02:14:30.787Z,84.68
2023-03-17T02:17:00.213Z,85.09
2023-03-17T02:19:30.881Z,85.08
2023-03-17T02:22:02.741Z,84.57
2023-03-17T02:24:36.653Z,85.07
2023-03-17T02:27:12.402Z,85.28
2023-03-17T02:29:45.682Z,84.98
2023-03-17T02:32:18.184Z,84.40
2023-03-17T02:34:48.899Z,84.44
2023-03-17T02:37:19.576Z,84.54
2023-03-17T02:39:48.480Z,84.47
2023-03-17T02:42:17.864Z,84.44
2023-03-17T02:44:46.693Z,84.53
2023-03-17T02:47:16.744Z,84.61
2023-03-17T02:49:46.027Z,84.71
2023-03-17T02:52:14.990Z,84.54
2023-03-17T02:54:44.882Z,84.76
2023-03-17T02:57:13.876Z,84.95
2023-03-17T02:59:42.680Z,84.94
2023-03-17T03:02:11.964Z,84.61
2023-03-17T03:04:41.325Z,84.37
2023-03-17T03:07:11.086Z,84.22
2023-03-17T03:09:41.467Z,84.60
2023-03-17T03:12:13.336Z,84.63
2023-03-17T03:14:42.440Z,84.06
2023-03-17T03:17:11.738Z,84.01
2023-03-17T03:19:40.926Z,84.15
2023-03-17T03:22:11.254Z,84.12
2023-03-17T03:24:40.248Z,84.50
2023-03-17T03:27:09.688Z,84.44
2023-03-17T03:29:38.764Z,83.84
2023-03-17T03:32:08.776Z,84.13
2023-03-17T03:34:37.658Z,84.56
2023-03-17T03:37:07.840Z,84.58
2023-03-17T03:39:37.621Z,84.58
2023-03-17T03:42:09.461Z,84.57
2023-03-17T03:44:38.653Z,84.76
2023-03-17T03:47:09.852Z,84.47
2023-03-17T03:49:38.790Z,84.74
2023-03-17T03:52:09.971Z,84.99
2023-03-17T03:54:38.757Z,85.09
2023-03-17T03:57:09.094Z,85.32
2023-03-17T03:59:38.208Z,85.46
2023-03-17T04:02:09.716Z,85.79
2023-03-17T04:04:39.926Z,86.20
2023-03-17T04:07:09.401Z,85.78
2023-03-17T04:09:38.704Z,85.99
2023-03-17T04:12:11.140Z,86.20
2023-03-17T04:14:40.689Z,86.50
2023-03-17T04:17:10.484Z,86.53
2023-03-17T04:19:40.261Z,86.30
2023-03-17T04:22:13.157Z,86.32
2023-03-17T04:24:42.131Z,86.53
2023-03-17T04:27:11.720Z,86.07
2023-03-17T04:29:42.084Z,86.34
2023-03-17T04:32:14.266Z,86.56
2023-03-17T04:34:43.589Z,86.42
2023-03-17T04:37:12.639Z,86.63
2023-03-17T04:39:42.708Z,86.78
2023-03-17T04:42:12.081Z,86.83
2023-03-17T04:44:42.671Z,86.62
2023-03-17T04:47:23.342Z,86.73
2023-03-17T04:49:53.528Z,86.84
2023-03-17T04:52:25.745Z,86.74
2023-03-17T04:54:55.768Z,86.42
2023-03-17T04:57:29.382Z,86.64
2023-03-17T05:00:09.373Z,87.03
2023-03-17T05:02:40.014Z,87.13
2023-03-17T05:05:10.375Z,87.09
2023-03-17T05:07:44.930Z,87.10
2023-03-17T05:10:19.477Z,87.18
2023-03-17T05:12:51.239Z,87.00
2023-03-17T05:15:21.480Z,86.92
2023-03-17T05:17:51.344Z,87.21
2023-03-17T05:20:21.146Z,87.17
2023-03-17T05:22:55.427Z,86.98
2023-03-17T05:25:25.863Z,87.06
2023-03-17T05:27:59.354Z,86.96
2023-03-17T05:30:32.220Z,87.11
2023-03-17T05:33:03.968Z,87.25
2023-03-17T05:35:34.529Z,87.20
2023-03-17T05:38:04.371Z,87.01
2023-03-17T05:40:35.025Z,86.97
2023-03-17T05:43:06.990Z,86.71
2023-03-17T05:45:36.366Z,86.47
2023-03-17T05:48:07.044Z,86.21
2023-03-17T05:50:36.014Z,85.56
2023-03-17T05:53:06.689Z,85.99
2023-03-17T05:55:35.428Z,85.97
2023-03-17T05:58:07.287Z,85.95
2023-03-17T06:00:37.253Z,86.34
2023-03-17T06:03:07.774Z,85.53
2023-03-17T06:05:36.981Z,84.98
2023-03-17T06:08:07.042Z,85.32
2023-03-17T06:10:36.337Z,84.99
2023-03-17T06:13:06.411Z,82.47
2023-03-17T06:15:36.501Z,78.73
2023-03-17T06:18:07.033Z,75.34
2023-03-17T06:20:36.752Z,74.30
2023-03-17T06:23:07.034Z,74.62
2023-03-17T06:25:36.509Z,75.22
2023-03-17T06:28:06.938Z,74.96
2023-03-17T06:30:40.402Z,75.53
2023-03-17T06:33:09.664Z,75.78
2023-03-17T06:35:38.592Z,76.48
2023-03-17T06:38:08.335Z,73.56
2023-03-17T06:40:37.637Z,68.40
2023-03-17T06:43:07.499Z,66.77
2023-03-17T06:45:36.985Z,67.61
2023-03-17T06:48:09.168Z,62.74
2023-03-17T06:50:38.208Z,59.40
2023-03-17T06:53:07.965Z,55.42
2023-03-17T06:55:39.416Z,55.92
2023-03-17T06:58:10.102Z,53.74
2023-03-17T07:00:39.404Z,54.07
2023-03-17T07:03:10.828Z,53.72
2023-03-17T07:05:39.780Z,58.45
2023-03-17T07:08:11.042Z,58.80
2023-03-17T07:10:43.151Z,58.10
2023-03-17T07:13:15.246Z,59.49
2023-03-17T07:15:46.521Z,61.36
2023-03-17T07:18:16.590Z,60.26
2023-03-17T07:20:47.874Z,60.36
2023-03-17T07:23:23.165Z,58.01
2023-03-17T07:25:52.475Z,58.57
2023-03-17T07:28:22.296Z,54.27
2023-03-17T07:30:52.045Z,52.82
2023-03-17T07:33:24.412Z,52.76
2023-03-17T07:35:58.495Z,52.71
2023-03-17T07:38:30.759Z,52.43
2023-03-17T07:41:03.973Z,52.41
2023-03-17T07:43:34.724Z,52.23
2023-03-17T07:46:17.509Z,51.87
2023-03-17T07:48:50.710Z,49.94
2023-03-17T07:51:44.627Z,46.73
2023-03-17T07:54:15.066Z,44.37
2023-03-17T07:56:51.873Z,42.45
2023-03-17T07:59:22.446Z,43.05
2023-03-17T08:02:02.078Z,40.23
2023-03-17T08:04:38.140Z,39.76
2023-03-17T08:07:14.765Z,37.61
2023-03-17T08:09:43.796Z,37.33
2023-03-17T08:12:14.098Z,36.59
2023-03-17T08:14:43.352Z,36.91
2023-03-17T08:17:13.250Z,36.86
2023-03-17T08:19:43.225Z,36.28
2023-03-17T08:22:15.631Z,36.36
2023-03-17T08:24:46.690Z,35.63
2023-03-17T08:27:18.730Z,36.03
2023-03-17T08:29:49.658Z,35.48
2023-03-17T08:32:24.751Z,33.64
2023-03-17T08:34:55.718Z,33.75
2023-03-17T08:37:25.464Z,33.42
2023-03-17T08:39:54.943Z,33.68
2023-03-17T08:42:26.967Z,35.74
2023-03-17T08:44:57.827Z,36.47
2023-03-17T08:50:20.020Z,39.17
2023-03-17T08:52:57.541Z,40.29
2023-03-17T08:55:29.570Z,40.61
2023-03-17T08:57:58.964Z,40.95
2023-03-17T09:00:31.413Z,41.61
2023-03-17T09:03:07.657Z,42.94
2023-03-17T09:05:38.437Z,43.25
2023-03-17T09:08:16.910Z,43.64
2023-03-17T09:10:51.912Z,44.03
2023-03-17T09:13:28.224Z,43.88
2023-03-17T09:15:57.570Z,42.76
2023-03-17T09:18:31.445Z,39.49
2023-03-17T09:23:53.040Z,33.11
2023-03-17T09:26:26.425Z,32.33
2023-03-17T09:28:58.055Z,29.53
2023-03-17T09:31:27.235Z,27.71
2023-03-17T09:33:56.362Z,27.62
2023-03-17T09:36:27.493Z,27.68
2023-03-17T09:39:00.900Z,26.93
2023-03-17T09:41:58.561Z,27.10
2023-03-17T09:44:51.913Z,26.13
2023-03-17T09:47:43.089Z,26.35
2023-03-17T09:50:16.716Z,25.91
2023-03-17T09:52:46.594Z,26.61
2023-03-17T09:55:26.457Z,26.57
2023-03-17T09:57:57.153Z,27.08
2023-03-17T10:00:30.873Z,27.48
2023-03-17T10:03:00.993Z,28.83
2023-03-17T10:05:32.378Z,29.23
2023-03-17T10:08:26.924Z,29.52
2023-03-17T10:11:11.165Z,31.81
2023-03-17T10:13:54.294Z,32.86
2023-03-17T10:16:30.965Z,33.17
2023-03-17T10:19:04.960Z,33.93
2023-03-17T10:21:43.661Z,35.06
2023-03-17T10:24:13.151Z,35.65
2023-03-17T10:26:46.773Z,35.65
2023-03-17T10:29:18.098Z,35.87
2023-03-17T10:31:47.262Z,35.47
2023-03-17T10:34:19.539Z,36.37
2023-03-17T10:36:54.809Z,36.51
2023-03-17T10:39:24.988Z,37.02
2023-03-17T10:42:01.263Z,38.00
2023-03-17T10:44:39.953Z,38.18
2023-03-17T10:47:24.684Z,38.28
2023-03-17T10:49:55.501Z,38.37
2023-03-17T10:52:27.865Z,38.59
2023-03-17T10:55:05.028Z,38.41
2023-03-17T10:57:38.360Z,38.88
2023-03-17T11:00:19.329Z,39.12
2023-03-17T11:02:56.652Z,39.19
2023-03-17T11:05:28.485Z,40.01
2023-03-17T11:08:10.659Z,39.49
2023-03-17T11:10:41.620Z,39.27
2023-03-17T11:13:15.754Z,39.30
2023-03-17T11:15:46.182Z,39.01
2023-03-17T11:18:19.888Z,39.98
2023-03-17T11:20:54.209Z,39.63
2023-03-17T11:23:50.618Z,39.30
2023-03-17T11:27:08.269Z,39.86
2023-03-17T11:29:50.410Z,38.79
2023-03-17T11:32:36.923Z,39.17
2023-03-17T11:35:33.272Z,39.37
2023-03-17T11:38:25.313Z,39.75
2023-03-17T11:41:33.004Z,39.92
2023-03-17T11:44:23.554Z,40.00
2023-03-17T11:47:02.222Z,39.47
2023-03-17T11:49:37.002Z,39.84
2023-03-17T11:52:23.674Z,39.74
2023-03-17T11:54:58.921Z,39.90
2023-03-17T11:57:35.376Z,39.48
2023-03-17T12:00:16.046Z,39.99
2023-03-17T12:02:50.475Z,40.04
2023-03-17T12:05:23.352Z,40.17
2023-03-17T12:07:56.749Z,40.36
2023-03-17T12:10:33.499Z,40.75
2023-03-17T12:13:07.993Z,40.08
2023-03-17T12:15:43.643Z,40.52
2023-03-17T12:18:18.028Z,40.37
2023-03-17T12:21:05.312Z,40.49
2023-03-17T12:23:47.515Z,40.89
2023-03-17T12:26:20.092Z,40.55
2023-03-17T12:28:56.240Z,41.00
2023-03-17T12:31:29.489Z,40.90
2023-03-17T12:34:07.431Z,41.20
2023-03-17T12:36:38.297Z,40.43
2023-03-17T12:39:13.946Z,40.54
2023-03-17T12:42:15.761Z,40.39
2023-03-17T12:45:04.230Z,40.33
2023-03-17T12:47:55.565Z,40.95
2023-03-17T12:50:45.091Z,40.97
2023-03-17T12:53:50.461Z,41.27
2023-03-17T12:56:24.152Z,41.52
2023-03-17T12:58:58.259Z,40.68
2023-03-17T13:01:31.419Z,40.30
2023-03-17T13:04:18.032Z,41.09
2023-03-17T13:06:54.535Z,41.32
2023-03-17T13:09:44.669Z,41.48
2023-03-17T13:13:09.416Z,42.02
2023-03-17T13:15:59.993Z,41.58
2023-03-17T13:18:49.327Z,41.82
2023-03-17T13:21:26.629Z,41.54
2023-03-17T13:24:21.326Z,41.73
2023-03-17T13:27:00.379Z,41.64
2023-03-17T13:29:47.139Z,41.61
2023-03-17T13:32:35.121Z,42.04
2023-03-17T13:35:22.246Z,42.00
2023-03-17T13:38:20.196Z,42.28
2023-03-17T13:41:06.648Z,42.10
2023-03-17T13:44:02.825Z,42.12
2023-03-17T13:46:41.520Z,42.58
2023-03-17T13:49:24.060Z,42.47
2023-03-17T13:52:00.353Z,42.61
2023-03-17T13:54:40.526Z,41.91
2023-03-17T13:57:31.337Z,42.32
2023-03-17T14:00:17.173Z,41.61
2023-03-17T14:02:48.419Z,41.47
2023-03-17T14:05:24.383Z,41.67
2023-03-17T14:08:01.407Z,41.26
2023-03-17T14:10:33.553Z,41.11
2023-03-17T14:13:20.654Z,40.59
2023-03-17T14:15:56.836Z,40.72
2023-03-17T14:18:37.198Z,40.64
2023-03-17T14:21:19.933Z,41.15
2023-03-17T14:23:54.588Z,41.07
2023-03-17T14:26:27.907Z,41.05
2023-03-17T14:29:00.580Z,41.29
2023-03-17T14:31:30.628Z,41.27
2023-03-17T14:34:01.469Z,41.69
2023-03-17T14:36:34.123Z,41.75
2023-03-17T14:39:03.034Z,41.75
2023-03-17T14:41:34.771Z,42.44
2023-03-17T14:44:03.668Z,42.26
2023-03-17T14:46:36.565Z,42.27
2023-03-17T14:49:17.831Z,42.30
2023-03-17T14:51:56.664Z,42.18
2023-03-17T14:54:28.797Z,42.28
2023-03-17T14:57:02.965Z,42.81
2023-03-17T14:59:36.349Z,43.15
2023-03-17T15:02:21.666Z,42.93
2023-03-17T15:04:53.478Z,42.63
2023-03-17T15:07:36.967Z,42.45
2023-03-17T15:10:15.266Z,42.54
2023-03-17T15:12:46.462Z,42.65
2023-03-17T15:15:25.236Z,42.62
2023-03-17T15:18:04.027Z,42.71
2023-03-17T15:20:37.648Z,42.85
2023-03-17T15:23:17.768Z,42.75
2023-03-17T15:25:50.960Z,42.63
2023-03-17T15:28:22.724Z,42.79
2023-03-17T15:30:56.894Z,42.81
2023-03-17T15:33:34.825Z,43.07
2023-03-17T15:36:04.663Z,42.84
2023-03-17T15:38:38.511Z,42.73
2023-03-17T15:41:08.598Z,42.34
2023-03-17T15:43:37.995Z,42.37
2023-03-17T15:46:22.122Z,42.58
2023-03-17T15:48:53.047Z,42.64
2023-03-17T15:51:22.980Z,42.73
2023-03-17T15:53:55.367Z,43.02
2023-03-17T15:56:25.468Z,42.94
2023-03-17T15:58:55.418Z,43.27
2023-03-17T16:01:29.178Z,43.22
2023-03-17T16:03:58.874Z,43.42
2023-03-17T16:06:28.163Z,43.36
2023-03-17T16:09:01.283Z,43.43
2023-03-17T16:11:31.622Z,43.56
2023-03-17T16:14:04.474Z,43.86
2023-03-17T16:16:39.644Z,44.07
2023-03-17T16:19:17.166Z,44.20
2023-03-17T16:21:46.530Z,44.52
2023-03-17T16:24:19.861Z,44.70
2023-03-17T16:26:56.607Z,45.06
2023-03-17T16:29:25.625Z,45.24
2023-03-17T16:31:57.774Z,45.70
2023-03-17T16:34:27.344Z,46.15
2023-03-17T16:36:58.011Z,46.12
2023-03-17T16:39:27.007Z,46.20
2023-03-17T16:42:01.061Z,46.53
2023-03-17T16:44:31.465Z,46.84
2023-03-17T16:47:01.838Z,47.13
2023-03-17T16:49:32.981Z,47.33
2023-03-17T16:52:04.603Z,47.88
2023-03-17T16:54:35.893Z,48.32
2023-03-17T16:57:07.726Z,49.04
2023-03-17T16:59:37.283Z,49.43
2023-03-17T17:02:16.222Z,49.71
2023-03-17T17:04:45.410Z,49.95
2023-03-17T17:07:14.271Z,50.30
2023-03-17T17:09:43.509Z,50.40
2023-03-17T17:12:12.457Z,50.65
2023-03-17T17:14:41.404Z,51.01
2023-03-17T17:17:11.157Z,50.83
2023-03-17T17:19:39.974Z,51.50
2023-03-17T17:22:11.952Z,51.34
2023-03-17T17:24:40.800Z,51.48
2023-03-17T17:27:10.076Z,51.49
2023-03-17T17:29:39.003Z,51.27
2023-03-17T17:32:10.410Z,51.66
2023-03-17T17:34:39.310Z,51.60
2023-03-17T17:37:11.136Z,51.72
2023-03-17T17:39:40.046Z,51.94
2023-03-17T17:42:12.198Z,52.11
2023-03-17T17:44:42.394Z,52.12
2023-03-17T17:47:17.053Z,51.94
2023-03-17T17:49:46.324Z,52.33
2023-03-17T17:52:15.430Z,52.33
2023-03-17T17:54:44.333Z,52.33
2023-03-17T17:57:14.344Z,52.29
2023-03-17T17:59:43.906Z,52.34
2023-03-17T18:02:13.900Z,52.39
2023-03-17T18:04:45.448Z,52.42
2023-03-17T18:07:15.954Z,52.38
2023-03-17T18:09:44.888Z,52.74
2023-03-17T18:12:14.381Z,52.86
2023-03-17T18:14:43.495Z,53.11
2023-03-17T18:17:12.624Z,53.31
2023-03-17T18:19:41.841Z,53.42
2023-03-17T18:22:11.562Z,53.54
2023-03-17T18:24:40.643Z,53.33
2023-03-17T18:27:13.026Z,53.58
2023-03-17T18:29:46.848Z,53.62
2023-03-17T18:32:17.266Z,53.85
2023-03-17T18:34:52.761Z,53.89
2023-03-17T18:37:25.115Z,53.97
2023-03-17T18:40:12.004Z,54.13
2023-03-17T18:42:46.223Z,54.68
2023-03-17T18:45:15.406Z,54.33
2023-03-17T18:47:46.504Z,54.43
2023-03-17T18:50:17.006Z,54.81
2023-03-17T18:52:48.081Z,54.91
2023-03-17T18:55:27.936Z,54.89
2023-03-17T18:57:57.530Z,54.83
2023-03-17T19:00:26.677Z,55.16
2023-03-17T19:02:55.572Z,55.01
2023-03-17T19:05:25.495Z,55.39
2023-03-17T19:07:54.578Z,55.52
2023-03-17T19:10:24.128Z,55.60
2023-03-17T19:12:53.753Z,55.52
2023-03-17T19:15:23.984Z,55.81
2023-03-17T19:17:54.308Z,55.70
2023-03-17T19:20:23.706Z,56.05
2023-03-17T19:22:53.249Z,55.67
2023-03-17T19:25:22.349Z,55.76
2023-03-17T19:27:51.379Z,55.77
2023-03-17T19:30:20.545Z,55.97
2023-03-17T19:32:49.549Z,55.95
2023-03-17T19:35:18.877Z,56.12
2023-03-17T19:37:47.757Z,56.59
2023-03-17T19:40:17.362Z,56.55
2023-03-17T19:42:46.265Z,56.53
2023-03-17T19:45:16.299Z,56.22
2023-03-17T19:47:46.462Z,56.54
2023-03-17T19:50:16.532Z,56.58
2023-03-17T19:52:45.576Z,56.67
2023-03-17T19:55:14.704Z,56.59
2023-03-17T19:57:46.258Z,56.76
2023-03-17T20:00:17.757Z,56.52
2023-03-17T20:02:47.222Z,57.05
2023-03-17T20:05:17.363Z,56.87
2023-03-17T20:07:49.932Z,56.81
2023-03-17T20:10:19.933Z,57.04
2023-03-17T20:12:49.351Z,57.00
2023-03-17T20:15:21.378Z,57.13
2023-03-17T20:17:55.125Z,57.18
2023-03-17T20:20:25.165Z,57.24
2023-03-17T20:22:57.911Z,57.33
2023-03-17T20:25:33.954Z,57.42
2023-03-17T20:28:05.090Z,57.59
2023-03-17T20:30:39.099Z,57.63
2023-03-17T20:33:17.836Z,57.64
2023-03-17T20:35:49.505Z,57.79
2023-03-17T20:38:23.257Z,57.84
2023-03-17T20:41:08.994Z,57.54
2023-03-17T20:43:43.996Z,57.71
2023-03-17T20:46:28.042Z,58.07
2023-03-17T20:49:01.513Z,57.95
2023-03-17T20:51:35.417Z,58.07
2023-03-17T20:54:08.699Z,58.01
2023-03-17T20:56:40.854Z,58.24
2023-03-17T20:59:22.900Z,57.90
2023-03-17T21:01:59.047Z,58.19
2023-03-17T21:04:30.161Z,58.12
2023-03-17T21:07:01.567Z,58.28
2023-03-17T21:09:34.960Z,58.08
2023-03-17T21:12:06.936Z,57.84
2023-03-17T21:14:39.027Z,58.21
2023-03-17T21:17:13.361Z,57.92
2023-03-17T21:19:41.727Z,57.51
2023-03-17T21:22:11.937Z,57.74
2023-03-17T21:24:40.856Z,57.71
2023-03-17T21:27:11.787Z,57.66
2023-03-17T21:29:40.786Z,57.83
2023-03-17T21:32:10.226Z,58.07
2023-03-17T21:34:39.025Z,57.89
2023-03-17T21:37:10.532Z,57.86
2023-03-17T21:39:44.119Z,57.92
2023-03-17T21:42:13.625Z,57.89
2023-03-17T21:44:42.987Z,57.84
2023-03-17T21:47:12.087Z,58.10
2023-03-17T21:49:41.341Z,58.18
2023-03-17T21:52:11.921Z,58.02
2023-03-17T21:54:41.467Z,58.27
2023-03-17T21:57:13.272Z,57.86
2023-03-17T21:59:42.056Z,57.88
2023-03-17T22:02:12.346Z,58.05
2023-03-17T22:04:43.380Z,58.09
2023-03-17T22:07:13.153Z,57.94
2023-03-17T22:09:43.111Z,58.03
2023-03-17T22:12:14.663Z,57.99
2023-03-17T22:14:43.533Z,57.89
2023-03-17T22:17:13.831Z,57.96
2023-03-17T22:19:43.561Z,57.81
2023-03-17T22:22:14.189Z,57.90
2023-03-17T22:24:42.957Z,57.89
2023-03-17T22:27:12.071Z,57.80
2023-03-17T22:29:40.933Z,57.82
2023-03-17T22:32:10.860Z,57.82
2023-03-17T22:34:39.655Z,57.98
2023-03-17T22:37:10.182Z,57.93
2023-03-17T22:39:39.343Z,57.95
2023-03-17T22:42:09.636Z,57.77
2023-03-17T22:44:39.166Z,58.02
2023-03-17T22:47:09.075Z,57.91
2023-03-17T22:49:37.927Z,57.85
2023-03-17T22:52:08.731Z,57.92
2023-03-17T22:54:37.500Z,57.79
2023-03-17T22:57:07.761Z,57.83
2023-03-17T22:59:36.553Z,57.85
2023-03-17T23:02:08.130Z,57.90
2023-03-17T23:04:37.527Z,57.92
2023-03-17T23:07:07.559Z,58.02
2023-03-17T23:09:38.012Z,57.97
2023-03-17T23:12:10.940Z,57.86
2023-03-17T23:14:39.724Z,57.87
2023-03-17T23:17:10.162Z,58.06
2023-03-17T23:19:39.278Z,58.00
2023-03-17T23:22:08.798Z,58.00
2023-03-17T23:24:37.916Z,57.96
2023-03-17T23:27:07.939Z,58.08
2023-03-17T23:29:37.283Z,57.77
2023-03-17T23:32:11.596Z,57.87
2023-03-17T23:34:40.453Z,57.76
2023-03-17T23:37:09.787Z,57.75
2023-03-17T23:39:39.423Z,57.79
2023-03-17T23:42:10.644Z,57.87
2023-03-17T23:44:40.557Z,57.85
2023-03-17T23:47:10.537Z,57.82
2023-03-17T23:49:39.767Z,57.92
2023-03-17T23:52:10.703Z,58.00
2023-03-17T23:54:39.848Z,57.86
2023-03-17T23:57:10.238Z,58.06
2023-03-17T23:59:39.297Z,57.99
